sensor_id;sensor_type;location;lat;lon;timestamp;P1;durP1;ratioP1;P2;durP2;ratioP2
14247;SDS011;7208;49.826;6.004;2022-09-09T00:04:35;4.73;;;2.00;;
14247;SDS011;7208;49.826;6.004;2022-09-09T00:15:02;2.57;;;1.77;;
14247;SDS011;7208;49.826;6.004;2022-09-09T00:22:39;4.33;;;3.40;;
14247;SDS011;7208;49.826;6.004;2022-09-09T00:25:12;6.30;;;3.40;;
14247;SDS011;7208;49.826;6.004;2022-09-09T00:27:44;4.63;;;3.90;;
14247;SDS011;7208;49.826;6.004;2022-09-09T00:32:36;5.27;;;2.90;;
14247;SDS011;7208;49.826;6.004;2022-09-09T00:35:04;5.93;;;3.47;;
14247;SDS011;7208;49.826;6.004;2022-09-09T00:37:40;8.20;;;3.50;;
14247;SDS011;7208;49.826;6.004;2022-09-09T00:48:12;6.17;;;3.40;;
14247;SDS011;7208;49.826;6.004;2022-09-09T00:50:53;5.77;;;3.13;;
14247;SDS011;7208;49.826;6.004;2022-09-09T00:53:28;7.20;;;3.23;;
14247;SDS011;7208;49.826;6.004;2022-09-09T00:56:03;6.13;;;3.10;;
14247;SDS011;7208;49.826;6.004;2022-09-09T00:58:32;8.43;;;3.47;;
14247;SDS011;7208;49.826;6.004;2022-09-09T01:01:02;4.20;;;3.80;;
14247;SDS011;7208;49.826;6.004;2022-09-09T01:03:35;7.67;;;4.30;;
14247;SDS011;7208;49.826;6.004;2022-09-09T01:10:59;5.77;;;3.80;;
14247;SDS011;7208;49.826;6.004;2022-09-09T01:13:31;4.87;;;3.37;;
14247;SDS011;7208;49.826;6.004;2022-09-09T01:15:59;8.93;;;4.63;;
14247;SDS011;7208;49.826;6.004;2022-09-09T01:18:27;6.53;;;3.20;;
14247;SDS011;7208;49.826;6.004;2022-09-09T01:21:13;6.53;;;3.20;;
14247;SDS011;7208;49.826;6.004;2022-09-09T01:26:34;10.13;;;3.47;;
14247;SDS011;7208;49.826;6.004;2022-09-09T01:29:00;4.57;;;4.10;;
14247;SDS011;7208;49.826;6.004;2022-09-09T01:31:28;5.80;;;4.13;;
14247;SDS011;7208;49.826;6.004;2022-09-09T01:33:55;13.50;;;4.60;;
14247;SDS011;7208;49.826;6.004;2022-09-09T01:36:24;9.90;;;5.50;;
14247;SDS011;7208;49.826;6.004;2022-09-09T01:38:51;8.90;;;4.00;;
14247;SDS011;7208;49.826;6.004;2022-09-09T01:41:17;7.30;;;4.70;;
14247;SDS011;7208;49.826;6.004;2022-09-09T01:43:44;11.33;;;4.37;;
14247;SDS011;7208;49.826;6.004;2022-09-09T01:46:10;11.30;;;4.80;;
14247;SDS011;7208;49.826;6.004;2022-09-09T01:48:36;9.60;;;4.73;;
14247;SDS011;7208;49.826;6.004;2022-09-09T01:51:03;8.20;;;4.90;;
14247;SDS011;7208;49.826;6.004;2022-09-09T01:53:29;5.33;;;4.80;;
14247;SDS011;7208;49.826;6.004;2022-09-09T01:55:58;5.77;;;4.40;;
14247;SDS011;7208;49.826;6.004;2022-09-09T01:58:48;9.13;;;3.90;;
14247;SDS011;7208;49.826;6.004;2022-09-09T02:01:23;7.77;;;3.83;;
14247;SDS011;7208;49.826;6.004;2022-09-09T02:03:56;6.13;;;4.20;;
14247;SDS011;7208;49.826;6.004;2022-09-09T02:08:49;4.90;;;3.70;;
14247;SDS011;7208;49.826;6.004;2022-09-09T02:11:18;5.63;;;3.57;;
14247;SDS011;7208;49.826;6.004;2022-09-09T02:13:46;8.87;;;3.83;;
14247;SDS011;7208;49.826;6.004;2022-09-09T02:16:15;7.00;;;3.93;;
14247;SDS011;7208;49.826;6.004;2022-09-09T02:21:13;6.87;;;3.80;;
14247;SDS011;7208;49.826;6.004;2022-09-09T02:23:40;10.10;;;3.80;;
14247;SDS011;7208;49.826;6.004;2022-09-09T02:26:07;10.00;;;3.20;;
14247;SDS011;7208;49.826;6.004;2022-09-09T02:28:35;7.60;;;3.43;;
14247;SDS011;7208;49.826;6.004;2022-09-09T02:31:02;6.17;;;3.13;;
14247;SDS011;7208;49.826;6.004;2022-09-09T02:33:30;5.47;;;2.40;;
14247;SDS011;7208;49.826;6.004;2022-09-09T02:35:59;6.60;;;2.83;;
14247;SDS011;7208;49.826;6.004;2022-09-09T02:38:28;3.87;;;2.70;;
14247;SDS011;7208;49.826;6.004;2022-09-09T02:40:55;8.87;;;3.10;;
14247;SDS011;7208;49.826;6.004;2022-09-09T02:43:21;5.73;;;2.67;;
14247;SDS011;7208;49.826;6.004;2022-09-09T02:45:53;5.63;;;2.40;;
14247;SDS011;7208;49.826;6.004;2022-09-09T02:48:29;5.30;;;2.47;;
14247;SDS011;7208;49.826;6.004;2022-09-09T02:50:58;5.10;;;2.23;;
14247;SDS011;7208;49.826;6.004;2022-09-09T02:56:15;4.83;;;2.43;;
14247;SDS011;7208;49.826;6.004;2022-09-09T02:58:41;5.67;;;2.90;;
14247;SDS011;7208;49.826;6.004;2022-09-09T03:01:08;6.33;;;2.83;;
14247;SDS011;7208;49.826;6.004;2022-09-09T03:03:34;5.10;;;2.80;;
14247;SDS011;7208;49.826;6.004;2022-09-09T03:06:00;7.03;;;2.93;;
14247;SDS011;7208;49.826;6.004;2022-09-09T03:08:26;5.23;;;2.47;;
14247;SDS011;7208;49.826;6.004;2022-09-09T03:10:57;7.10;;;2.80;;
14247;SDS011;7208;49.826;6.004;2022-09-09T03:13:23;7.90;;;3.00;;
14247;SDS011;7208;49.826;6.004;2022-09-09T03:15:50;3.60;;;2.80;;
14247;SDS011;7208;49.826;6.004;2022-09-09T03:18:16;5.00;;;2.90;;
14247;SDS011;7208;49.826;6.004;2022-09-09T03:20:42;7.63;;;3.57;;
14247;SDS011;7208;49.826;6.004;2022-09-09T03:23:08;5.53;;;2.87;;
14247;SDS011;7208;49.826;6.004;2022-09-09T03:25:34;6.90;;;2.73;;
14247;SDS011;7208;49.826;6.004;2022-09-09T03:28:00;5.97;;;3.17;;
14247;SDS011;7208;49.826;6.004;2022-09-09T03:30:27;4.77;;;2.87;;
14247;SDS011;7208;49.826;6.004;2022-09-09T03:32:53;7.60;;;3.03;;
14247;SDS011;7208;49.826;6.004;2022-09-09T03:35:20;5.03;;;2.70;;
14247;SDS011;7208;49.826;6.004;2022-09-09T03:37:46;5.73;;;2.67;;
14247;SDS011;7208;49.826;6.004;2022-09-09T03:40:12;7.37;;;2.93;;
14247;SDS011;7208;49.826;6.004;2022-09-09T03:42:39;5.67;;;3.10;;
14247;SDS011;7208;49.826;6.004;2022-09-09T03:45:06;12.10;;;3.53;;
14247;SDS011;7208;49.826;6.004;2022-09-09T03:47:34;5.40;;;2.80;;
14247;SDS011;7208;49.826;6.004;2022-09-09T03:50:00;8.20;;;2.57;;
14247;SDS011;7208;49.826;6.004;2022-09-09T03:52:26;5.70;;;2.60;;
14247;SDS011;7208;49.826;6.004;2022-09-09T03:54:52;9.20;;;2.43;;
14247;SDS011;7208;49.826;6.004;2022-09-09T03:57:18;7.83;;;2.50;;
14247;SDS011;7208;49.826;6.004;2022-09-09T03:59:45;6.07;;;2.43;;
14247;SDS011;7208;49.826;6.004;2022-09-09T04:02:11;11.47;;;2.97;;
14247;SDS011;7208;49.826;6.004;2022-09-09T04:04:37;6.23;;;2.13;;
14247;SDS011;7208;49.826;6.004;2022-09-09T04:07:03;8.40;;;2.73;;
14247;SDS011;7208;49.826;6.004;2022-09-09T04:09:31;6.03;;;2.37;;
14247;SDS011;7208;49.826;6.004;2022-09-09T04:11:57;5.87;;;3.10;;
14247;SDS011;7208;49.826;6.004;2022-09-09T04:14:24;6.57;;;2.37;;
14247;SDS011;7208;49.826;6.004;2022-09-09T04:16:54;6.47;;;2.33;;
14247;SDS011;7208;49.826;6.004;2022-09-09T04:19:22;6.97;;;2.43;;
14247;SDS011;7208;49.826;6.004;2022-09-09T04:21:48;4.40;;;2.10;;
14247;SDS011;7208;49.826;6.004;2022-09-09T04:24:16;6.07;;;1.87;;
14247;SDS011;7208;49.826;6.004;2022-09-09T04:26:42;6.47;;;1.70;;
14247;SDS011;7208;49.826;6.004;2022-09-09T04:29:08;6.87;;;1.83;;
14247;SDS011;7208;49.826;6.004;2022-09-09T04:31:35;8.53;;;1.97;;
14247;SDS011;7208;49.826;6.004;2022-09-09T04:34:02;7.97;;;2.17;;
14247;SDS011;7208;49.826;6.004;2022-09-09T04:36:30;6.73;;;1.53;;
14247;SDS011;7208;49.826;6.004;2022-09-09T04:38:57;10.43;;;2.00;;
14247;SDS011;7208;49.826;6.004;2022-09-09T04:41:23;9.43;;;2.43;;
14247;SDS011;7208;49.826;6.004;2022-09-09T04:43:49;6.03;;;1.77;;
14247;SDS011;7208;49.826;6.004;2022-09-09T04:46:18;8.73;;;1.83;;
14247;SDS011;7208;49.826;6.004;2022-09-09T04:48:44;6.53;;;2.10;;
14247;SDS011;7208;49.826;6.004;2022-09-09T04:51:11;7.77;;;2.10;;
14247;SDS011;7208;49.826;6.004;2022-09-09T04:53:38;9.30;;;2.00;;
14247;SDS011;7208;49.826;6.004;2022-09-09T04:56:12;9.33;;;2.30;;
14247;SDS011;7208;49.826;6.004;2022-09-09T04:58:38;7.90;;;2.20;;
14247;SDS011;7208;49.826;6.004;2022-09-09T05:01:07;5.03;;;2.20;;
14247;SDS011;7208;49.826;6.004;2022-09-09T05:03:33;6.07;;;1.90;;
14247;SDS011;7208;49.826;6.004;2022-09-09T05:08:32;6.53;;;2.90;;
14247;SDS011;7208;49.826;6.004;2022-09-09T05:10:58;6.43;;;1.90;;
14247;SDS011;7208;49.826;6.004;2022-09-09T05:13:25;11.17;;;2.47;;
14247;SDS011;7208;49.826;6.004;2022-09-09T05:15:52;10.33;;;2.13;;
14247;SDS011;7208;49.826;6.004;2022-09-09T05:18:18;9.43;;;2.10;;
14247;SDS011;7208;49.826;6.004;2022-09-09T05:20:44;6.70;;;1.70;;
14247;SDS011;7208;49.826;6.004;2022-09-09T05:23:10;6.10;;;2.00;;
14247;SDS011;7208;49.826;6.004;2022-09-09T05:25:38;4.60;;;1.83;;
14247;SDS011;7208;49.826;6.004;2022-09-09T05:28:05;5.97;;;1.97;;
14247;SDS011;7208;49.826;6.004;2022-09-09T05:30:32;7.67;;;1.67;;
14247;SDS011;7208;49.826;6.004;2022-09-09T05:32:59;6.60;;;1.80;;
14247;SDS011;7208;49.826;6.004;2022-09-09T05:35:26;9.03;;;2.63;;
14247;SDS011;7208;49.826;6.004;2022-09-09T05:37:52;7.20;;;2.07;;
14247;SDS011;7208;49.826;6.004;2022-09-09T05:40:19;4.57;;;1.77;;
14247;SDS011;7208;49.826;6.004;2022-09-09T05:42:46;5.00;;;1.93;;
14247;SDS011;7208;49.826;6.004;2022-09-09T05:45:12;4.20;;;1.47;;
14247;SDS011;7208;49.826;6.004;2022-09-09T05:47:38;6.60;;;1.87;;
14247;SDS011;7208;49.826;6.004;2022-09-09T05:50:04;8.60;;;2.17;;
14247;SDS011;7208;49.826;6.004;2022-09-09T05:52:30;5.50;;;1.73;;
14247;SDS011;7208;49.826;6.004;2022-09-09T05:54:57;7.57;;;1.87;;
14247;SDS011;7208;49.826;6.004;2022-09-09T05:57:24;7.10;;;1.70;;
14247;SDS011;7208;49.826;6.004;2022-09-09T05:59:50;7.80;;;1.53;;
14247;SDS011;7208;49.826;6.004;2022-09-09T06:02:16;5.97;;;1.90;;
14247;SDS011;7208;49.826;6.004;2022-09-09T06:04:42;6.03;;;1.87;;
14247;SDS011;7208;49.826;6.004;2022-09-09T06:07:08;5.80;;;1.60;;
14247;SDS011;7208;49.826;6.004;2022-09-09T06:09:34;6.43;;;1.60;;
14247;SDS011;7208;49.826;6.004;2022-09-09T06:12:00;3.67;;;1.40;;
14247;SDS011;7208;49.826;6.004;2022-09-09T06:14:26;9.03;;;2.37;;
14247;SDS011;7208;49.826;6.004;2022-09-09T06:16:52;10.10;;;2.20;;
14247;SDS011;7208;49.826;6.004;2022-09-09T06:19:18;6.00;;;1.50;;
14247;SDS011;7208;49.826;6.004;2022-09-09T06:21:45;7.07;;;1.57;;
14247;SDS011;7208;49.826;6.004;2022-09-09T06:24:12;8.40;;;2.60;;
14247;SDS011;7208;49.826;6.004;2022-09-09T06:26:42;6.70;;;2.00;;
14247;SDS011;7208;49.826;6.004;2022-09-09T06:29:08;9.43;;;1.70;;
14247;SDS011;7208;49.826;6.004;2022-09-09T06:31:35;3.93;;;1.60;;
14247;SDS011;7208;49.826;6.004;2022-09-09T06:34:02;3.00;;;1.10;;
14247;SDS011;7208;49.826;6.004;2022-09-09T06:36:33;8.37;;;1.50;;
14247;SDS011;7208;49.826;6.004;2022-09-09T06:39:00;5.93;;;1.60;;
14247;SDS011;7208;49.826;6.004;2022-09-09T06:41:27;6.43;;;1.80;;
14247;SDS011;7208;49.826;6.004;2022-09-09T06:43:53;2.60;;;1.20;;
14247;SDS011;7208;49.826;6.004;2022-09-09T06:46:23;5.37;;;1.17;;
14247;SDS011;7208;49.826;6.004;2022-09-09T06:48:53;5.00;;;1.40;;
14247;SDS011;7208;49.826;6.004;2022-09-09T06:51:26;8.77;;;1.57;;
14247;SDS011;7208;49.826;6.004;2022-09-09T06:53:56;4.00;;;1.17;;
14247;SDS011;7208;49.826;6.004;2022-09-09T06:56:23;5.10;;;1.60;;
14247;SDS011;7208;49.826;6.004;2022-09-09T06:58:50;4.83;;;1.47;;
14247;SDS011;7208;49.826;6.004;2022-09-09T07:01:19;4.10;;;1.20;;
14247;SDS011;7208;49.826;6.004;2022-09-09T07:03:47;7.40;;;1.33;;
14247;SDS011;7208;49.826;6.004;2022-09-09T07:06:32;8.47;;;1.47;;
14247;SDS011;7208;49.826;6.004;2022-09-09T07:09:00;6.77;;;1.23;;
14247;SDS011;7208;49.826;6.004;2022-09-09T07:11:29;5.20;;;1.43;;
14247;SDS011;7208;49.826;6.004;2022-09-09T07:13:56;7.07;;;1.87;;
14247;SDS011;7208;49.826;6.004;2022-09-09T07:16:23;5.17;;;1.30;;
14247;SDS011;7208;49.826;6.004;2022-09-09T07:18:50;4.40;;;1.50;;
14247;SDS011;7208;49.826;6.004;2022-09-09T07:21:16;5.43;;;1.97;;
14247;SDS011;7208;49.826;6.004;2022-09-09T07:23:44;3.93;;;1.53;;
14247;SDS011;7208;49.826;6.004;2022-09-09T07:26:11;2.93;;;1.20;;
14247;SDS011;7208;49.826;6.004;2022-09-09T07:28:38;5.73;;;1.57;;
14247;SDS011;7208;49.826;6.004;2022-09-09T07:31:05;7.33;;;1.77;;
14247;SDS011;7208;49.826;6.004;2022-09-09T07:33:32;6.87;;;1.60;;
14247;SDS011;7208;49.826;6.004;2022-09-09T07:36:06;5.50;;;1.47;;
14247;SDS011;7208;49.826;6.004;2022-09-09T07:38:54;5.00;;;1.63;;
14247;SDS011;7208;49.826;6.004;2022-09-09T07:41:20;4.97;;;1.60;;
14247;SDS011;7208;49.826;6.004;2022-09-09T07:43:47;7.23;;;1.20;;
14247;SDS011;7208;49.826;6.004;2022-09-09T07:46:14;6.10;;;1.80;;
14247;SDS011;7208;49.826;6.004;2022-09-09T07:48:44;8.07;;;1.60;;
14247;SDS011;7208;49.826;6.004;2022-09-09T07:51:12;7.33;;;1.40;;
14247;SDS011;7208;49.826;6.004;2022-09-09T07:53:42;7.10;;;2.13;;
14247;SDS011;7208;49.826;6.004;2022-09-09T07:56:09;4.43;;;1.23;;
14247;SDS011;7208;49.826;6.004;2022-09-09T07:58:38;4.87;;;1.50;;
14247;SDS011;7208;49.826;6.004;2022-09-09T08:01:06;4.33;;;1.50;;
14247;SDS011;7208;49.826;6.004;2022-09-09T08:03:32;4.13;;;1.40;;
14247;SDS011;7208;49.826;6.004;2022-09-09T08:06:02;7.50;;;1.60;;
14247;SDS011;7208;49.826;6.004;2022-09-09T08:08:29;4.40;;;1.93;;
14247;SDS011;7208;49.826;6.004;2022-09-09T08:11:01;3.67;;;1.20;;
14247;SDS011;7208;49.826;6.004;2022-09-09T08:13:27;4.50;;;1.80;;
14247;SDS011;7208;49.826;6.004;2022-09-09T08:15:53;4.47;;;1.57;;
14247;SDS011;7208;49.826;6.004;2022-09-09T08:18:19;5.07;;;1.30;;
14247;SDS011;7208;49.826;6.004;2022-09-09T08:20:45;4.33;;;1.10;;
14247;SDS011;7208;49.826;6.004;2022-09-09T08:23:11;4.07;;;1.50;;
14247;SDS011;7208;49.826;6.004;2022-09-09T08:25:37;4.67;;;1.10;;
14247;SDS011;7208;49.826;6.004;2022-09-09T08:28:03;3.90;;;1.27;;
14247;SDS011;7208;49.826;6.004;2022-09-09T08:30:29;5.93;;;1.37;;
14247;SDS011;7208;49.826;6.004;2022-09-09T08:32:55;4.93;;;1.37;;
14247;SDS011;7208;49.826;6.004;2022-09-09T08:35:21;4.90;;;1.47;;
14247;SDS011;7208;49.826;6.004;2022-09-09T08:37:47;3.87;;;0.93;;
14247;SDS011;7208;49.826;6.004;2022-09-09T08:40:17;4.63;;;1.07;;
14247;SDS011;7208;49.826;6.004;2022-09-09T08:42:49;4.47;;;1.60;;
14247;SDS011;7208;49.826;6.004;2022-09-09T08:47:51;6.67;;;1.40;;
14247;SDS011;7208;49.826;6.004;2022-09-09T08:50:22;5.07;;;1.50;;
14247;SDS011;7208;49.826;6.004;2022-09-09T08:57:55;6.33;;;1.70;;
14247;SDS011;7208;49.826;6.004;2022-09-09T09:00:22;4.70;;;1.30;;
14247;SDS011;7208;49.826;6.004;2022-09-09T09:03:02;6.53;;;1.37;;
14247;SDS011;7208;49.826;6.004;2022-09-09T09:10:51;4.53;;;1.47;;
14247;SDS011;7208;49.826;6.004;2022-09-09T09:13:20;4.77;;;1.23;;
14247;SDS011;7208;49.826;6.004;2022-09-09T09:15:52;2.97;;;1.00;;
14247;SDS011;7208;49.826;6.004;2022-09-09T09:18:20;7.27;;;1.30;;
14247;SDS011;7208;49.826;6.004;2022-09-09T09:20:49;4.63;;;1.57;;
14247;SDS011;7208;49.826;6.004;2022-09-09T09:23:24;6.50;;;1.30;;
14247;SDS011;7208;49.826;6.004;2022-09-09T09:25:52;7.23;;;1.67;;
14247;SDS011;7208;49.826;6.004;2022-09-09T09:28:23;3.27;;;1.40;;
14247;SDS011;7208;49.826;6.004;2022-09-09T09:30:52;7.40;;;1.23;;
14247;SDS011;7208;49.826;6.004;2022-09-09T09:35:49;6.00;;;1.20;;
14247;SDS011;7208;49.826;6.004;2022-09-09T09:38:16;5.33;;;1.23;;
14247;SDS011;7208;49.826;6.004;2022-09-09T09:40:53;7.03;;;1.57;;
14247;SDS011;7208;49.826;6.004;2022-09-09T09:45:58;5.90;;;1.70;;
14247;SDS011;7208;49.826;6.004;2022-09-09T09:48:24;3.93;;;1.37;;
14247;SDS011;7208;49.826;6.004;2022-09-09T09:53:21;5.27;;;1.43;;
14247;SDS011;7208;49.826;6.004;2022-09-09T09:55:56;7.17;;;1.13;;
14247;SDS011;7208;49.826;6.004;2022-09-09T09:58:23;5.13;;;1.07;;
14247;SDS011;7208;49.826;6.004;2022-09-09T10:00:51;4.13;;;1.00;;
14247;SDS011;7208;49.826;6.004;2022-09-09T10:03:30;7.90;;;1.40;;
14247;SDS011;7208;49.826;6.004;2022-09-09T10:05:57;4.90;;;1.07;;
14247;SDS011;7208;49.826;6.004;2022-09-09T10:08:24;5.63;;;1.20;;
14247;SDS011;7208;49.826;6.004;2022-09-09T10:11:15;6.10;;;1.50;;
14247;SDS011;7208;49.826;6.004;2022-09-09T10:18:46;5.00;;;1.37;;
14247;SDS011;7208;49.826;6.004;2022-09-09T10:31:42;3.73;;;1.10;;
14247;SDS011;7208;49.826;6.004;2022-09-09T10:34:18;3.40;;;1.27;;
14247;SDS011;7208;49.826;6.004;2022-09-09T10:36:48;2.70;;;1.10;;
14247;SDS011;7208;49.826;6.004;2022-09-09T10:41:49;3.17;;;1.40;;
14247;SDS011;7208;49.826;6.004;2022-09-09T10:57:59;3.20;;;0.80;;
14247;SDS011;7208;49.826;6.004;2022-09-09T11:00:03;3.60;;;1.17;;
14247;SDS011;7208;49.826;6.004;2022-09-09T11:02:31;3.93;;;1.10;;
14247;SDS011;7208;49.826;6.004;2022-09-09T11:05:00;2.93;;;0.67;;
14247;SDS011;7208;49.826;6.004;2022-09-09T11:07:38;6.03;;;1.00;;
14247;SDS011;7208;49.826;6.004;2022-09-09T11:10:17;2.53;;;0.90;;
14247;SDS011;7208;49.826;6.004;2022-09-09T11:12:45;3.07;;;1.20;;
14247;SDS011;7208;49.826;6.004;2022-09-09T11:15:19;3.03;;;1.23;;
14247;SDS011;7208;49.826;6.004;2022-09-09T11:17:50;2.47;;;0.97;;
14247;SDS011;7208;49.826;6.004;2022-09-09T11:20:19;3.67;;;1.10;;
14247;SDS011;7208;49.826;6.004;2022-09-09T11:22:51;4.77;;;1.23;;
14247;SDS011;7208;49.826;6.004;2022-09-09T11:33:27;4.03;;;0.80;;
14247;SDS011;7208;49.826;6.004;2022-09-09T11:40:56;3.70;;;0.80;;
14247;SDS011;7208;49.826;6.004;2022-09-09T11:43:25;4.53;;;1.07;;
14247;SDS011;7208;49.826;6.004;2022-09-09T11:45:53;3.83;;;0.97;;
14247;SDS011;7208;49.826;6.004;2022-09-09T11:48:23;3.87;;;0.87;;
14247;SDS011;7208;49.826;6.004;2022-09-09T11:50:58;2.60;;;0.90;;
14247;SDS011;7208;49.826;6.004;2022-09-09T11:53:25;2.63;;;1.10;;
14247;SDS011;7208;49.826;6.004;2022-09-09T11:58:36;3.13;;;1.00;;
14247;SDS011;7208;49.826;6.004;2022-09-09T12:01:12;2.13;;;0.70;;
14247;SDS011;7208;49.826;6.004;2022-09-09T12:03:45;2.10;;;0.80;;
14247;SDS011;7208;49.826;6.004;2022-09-09T12:08:39;1.60;;;0.70;;
14247;SDS011;7208;49.826;6.004;2022-09-09T12:11:07;1.83;;;0.70;;
14247;SDS011;7208;49.826;6.004;2022-09-09T12:13:33;3.10;;;0.70;;
14247;SDS011;7208;49.826;6.004;2022-09-09T12:16:00;3.13;;;1.10;;
14247;SDS011;7208;49.826;6.004;2022-09-09T12:18:33;3.40;;;1.00;;
14247;SDS011;7208;49.826;6.004;2022-09-09T12:21:07;3.47;;;0.70;;
14247;SDS011;7208;49.826;6.004;2022-09-09T12:23:55;4.53;;;1.13;;
14247;SDS011;7208;49.826;6.004;2022-09-09T12:34:13;4.30;;;1.10;;
14247;SDS011;7208;49.826;6.004;2022-09-09T12:36:40;4.93;;;1.53;;
14247;SDS011;7208;49.826;6.004;2022-09-09T12:39:15;1.90;;;1.00;;
14247;SDS011;7208;49.826;6.004;2022-09-09T12:41:50;5.07;;;0.87;;
14247;SDS011;7208;49.826;6.004;2022-09-09T12:44:21;4.17;;;1.00;;
14247;SDS011;7208;49.826;6.004;2022-09-09T12:46:47;3.77;;;1.17;;
14247;SDS011;7208;49.826;6.004;2022-09-09T12:51:59;4.17;;;1.10;;
14247;SDS011;7208;49.826;6.004;2022-09-09T12:54:26;5.73;;;1.10;;
14247;SDS011;7208;49.826;6.004;2022-09-09T12:56:53;1.60;;;1.33;;
14247;SDS011;7208;49.826;6.004;2022-09-09T12:59:26;3.30;;;1.37;;
14247;SDS011;7208;49.826;6.004;2022-09-09T13:01:56;4.23;;;1.20;;
14247;SDS011;7208;49.826;6.004;2022-09-09T13:04:22;3.87;;;1.40;;
14247;SDS011;7208;49.826;6.004;2022-09-09T13:06:48;2.67;;;1.10;;
14247;SDS011;7208;49.826;6.004;2022-09-09T13:09:14;3.17;;;1.27;;
14247;SDS011;7208;49.826;6.004;2022-09-09T13:11:41;2.77;;;1.27;;
14247;SDS011;7208;49.826;6.004;2022-09-09T13:14:14;3.47;;;1.10;;
14247;SDS011;7208;49.826;6.004;2022-09-09T13:16:43;1.90;;;1.17;;
14247;SDS011;7208;49.826;6.004;2022-09-09T13:19:13;4.20;;;1.30;;
14247;SDS011;7208;49.826;6.004;2022-09-09T13:21:40;2.87;;;1.20;;
14247;SDS011;7208;49.826;6.004;2022-09-09T13:27:00;4.10;;;1.10;;
14247;SDS011;7208;49.826;6.004;2022-09-09T13:29:26;3.80;;;1.30;;
14247;SDS011;7208;49.826;6.004;2022-09-09T13:31:53;2.90;;;1.30;;
14247;SDS011;7208;49.826;6.004;2022-09-09T13:34:26;2.90;;;0.97;;
14247;SDS011;7208;49.826;6.004;2022-09-09T13:36:59;3.20;;;0.90;;
14247;SDS011;7208;49.826;6.004;2022-09-09T13:39:27;3.23;;;1.13;;
14247;SDS011;7208;49.826;6.004;2022-09-09T13:41:53;3.83;;;1.00;;
14247;SDS011;7208;49.826;6.004;2022-09-09T13:44:23;1.43;;;0.80;;
14247;SDS011;7208;49.826;6.004;2022-09-09T13:49:46;2.23;;;0.90;;
14247;SDS011;7208;49.826;6.004;2022-09-09T13:52:13;2.50;;;1.13;;
14247;SDS011;7208;49.826;6.004;2022-09-09T13:54:39;1.87;;;0.93;;
14247;SDS011;7208;49.826;6.004;2022-09-09T13:57:12;3.33;;;1.00;;
14247;SDS011;7208;49.826;6.004;2022-09-09T13:59:40;3.47;;;1.40;;
14247;SDS011;7208;49.826;6.004;2022-09-09T14:02:06;3.40;;;1.10;;
14247;SDS011;7208;49.826;6.004;2022-09-09T14:04:32;2.20;;;0.90;;
14247;SDS011;7208;49.826;6.004;2022-09-09T14:07:00;6.27;;;1.63;;
14247;SDS011;7208;49.826;6.004;2022-09-09T14:09:26;4.13;;;1.30;;
14247;SDS011;7208;49.826;6.004;2022-09-09T14:11:52;3.73;;;1.33;;
14247;SDS011;7208;49.826;6.004;2022-09-09T14:14:20;3.03;;;1.10;;
14247;SDS011;7208;49.826;6.004;2022-09-09T14:16:46;2.70;;;1.10;;
14247;SDS011;7208;49.826;6.004;2022-09-09T14:19:12;3.67;;;1.00;;
14247;SDS011;7208;49.826;6.004;2022-09-09T14:21:38;5.57;;;1.50;;
14247;SDS011;7208;49.826;6.004;2022-09-09T14:24:04;4.93;;;1.30;;
14247;SDS011;7208;49.826;6.004;2022-09-09T14:26:31;3.27;;;1.33;;
14247;SDS011;7208;49.826;6.004;2022-09-09T14:28:57;3.63;;;1.20;;
14247;SDS011;7208;49.826;6.004;2022-09-09T14:31:23;3.03;;;1.00;;
14247;SDS011;7208;49.826;6.004;2022-09-09T14:33:50;3.50;;;1.50;;
14247;SDS011;7208;49.826;6.004;2022-09-09T14:36:16;3.43;;;1.30;;
14247;SDS011;7208;49.826;6.004;2022-09-09T14:38:42;1.87;;;1.10;;
14247;SDS011;7208;49.826;6.004;2022-09-09T14:41:12;3.17;;;1.20;;
14247;SDS011;7208;49.826;6.004;2022-09-09T14:43:41;2.13;;;1.20;;
14247;SDS011;7208;49.826;6.004;2022-09-09T14:46:08;3.03;;;1.20;;
14247;SDS011;7208;49.826;6.004;2022-09-09T14:48:35;3.10;;;1.27;;
14247;SDS011;7208;49.826;6.004;2022-09-09T14:51:05;2.40;;;1.00;;
14247;SDS011;7208;49.826;6.004;2022-09-09T14:53:31;3.97;;;1.30;;
14247;SDS011;7208;49.826;6.004;2022-09-09T14:58:35;2.33;;;1.13;;
14247;SDS011;7208;49.826;6.004;2022-09-09T15:01:06;5.07;;;1.23;;
14247;SDS011;7208;49.826;6.004;2022-09-09T15:03:35;4.60;;;1.30;;
14247;SDS011;7208;49.826;6.004;2022-09-09T15:06:11;2.30;;;1.23;;
14247;SDS011;7208;49.826;6.004;2022-09-09T15:08:39;3.17;;;1.23;;
14247;SDS011;7208;49.826;6.004;2022-09-09T15:11:05;2.30;;;1.00;;
14247;SDS011;7208;49.826;6.004;2022-09-09T15:13:32;3.23;;;1.30;;
14247;SDS011;7208;49.826;6.004;2022-09-09T15:18:31;4.17;;;1.17;;
14247;SDS011;7208;49.826;6.004;2022-09-09T15:20:58;3.87;;;1.30;;
14247;SDS011;7208;49.826;6.004;2022-09-09T15:23:24;3.27;;;1.23;;
14247;SDS011;7208;49.826;6.004;2022-09-09T15:25:51;1.90;;;1.30;;
14247;SDS011;7208;49.826;6.004;2022-09-09T15:28:17;4.57;;;1.37;;
14247;SDS011;7208;49.826;6.004;2022-09-09T15:30:46;4.20;;;1.77;;
14247;SDS011;7208;49.826;6.004;2022-09-09T15:33:12;1.43;;;0.97;;
14247;SDS011;7208;49.826;6.004;2022-09-09T15:35:38;3.73;;;1.30;;
14247;SDS011;7208;49.826;6.004;2022-09-09T15:38:04;4.57;;;1.50;;
14247;SDS011;7208;49.826;6.004;2022-09-09T15:40:31;3.57;;;1.10;;
14247;SDS011;7208;49.826;6.004;2022-09-09T15:43:00;2.30;;;1.00;;
14247;SDS011;7208;49.826;6.004;2022-09-09T15:45:28;3.30;;;0.90;;
14247;SDS011;7208;49.826;6.004;2022-09-09T15:47:57;2.50;;;0.93;;
14247;SDS011;7208;49.826;6.004;2022-09-09T15:50:23;2.37;;;1.23;;
14247;SDS011;7208;49.826;6.004;2022-09-09T15:52:49;3.10;;;1.07;;
14247;SDS011;7208;49.826;6.004;2022-09-09T15:55:17;4.17;;;1.10;;
14247;SDS011;7208;49.826;6.004;2022-09-09T15:57:43;1.33;;;0.90;;
14247;SDS011;7208;49.826;6.004;2022-09-09T16:00:09;2.57;;;1.10;;
14247;SDS011;7208;49.826;6.004;2022-09-09T16:02:37;2.23;;;0.93;;
14247;SDS011;7208;49.826;6.004;2022-09-09T16:05:03;3.17;;;1.10;;
14247;SDS011;7208;49.826;6.004;2022-09-09T16:07:29;2.87;;;0.90;;
14247;SDS011;7208;49.826;6.004;2022-09-09T16:09:55;1.87;;;1.00;;
14247;SDS011;7208;49.826;6.004;2022-09-09T16:12:21;3.23;;;1.00;;
14247;SDS011;7208;49.826;6.004;2022-09-09T16:14:47;3.77;;;1.30;;
14247;SDS011;7208;49.826;6.004;2022-09-09T16:17:13;3.63;;;1.40;;
14247;SDS011;7208;49.826;6.004;2022-09-09T16:19:40;3.20;;;1.00;;
14247;SDS011;7208;49.826;6.004;2022-09-09T16:22:06;4.17;;;1.30;;
14247;SDS011;7208;49.826;6.004;2022-09-09T16:24:32;3.43;;;1.10;;
14247;SDS011;7208;49.826;6.004;2022-09-09T16:26:58;3.53;;;0.83;;
14247;SDS011;7208;49.826;6.004;2022-09-09T16:29:24;3.60;;;1.10;;
14247;SDS011;7208;49.826;6.004;2022-09-09T16:31:52;3.13;;;0.77;;
14247;SDS011;7208;49.826;6.004;2022-09-09T16:34:18;2.63;;;1.10;;
14247;SDS011;7208;49.826;6.004;2022-09-09T16:36:45;3.57;;;0.63;;
14247;SDS011;7208;49.826;6.004;2022-09-09T16:39:12;2.00;;;0.90;;
14247;SDS011;7208;49.826;6.004;2022-09-09T16:41:39;1.67;;;1.10;;
14247;SDS011;7208;49.826;6.004;2022-09-09T16:44:06;3.00;;;0.90;;
14247;SDS011;7208;49.826;6.004;2022-09-09T16:46:37;3.07;;;1.00;;
14247;SDS011;7208;49.826;6.004;2022-09-09T16:49:05;5.17;;;1.20;;
14247;SDS011;7208;49.826;6.004;2022-09-09T16:51:32;1.80;;;0.70;;
14247;SDS011;7208;49.826;6.004;2022-09-09T16:54:00;2.93;;;0.80;;
14247;SDS011;7208;49.826;6.004;2022-09-09T16:56:28;1.47;;;0.60;;
14247;SDS011;7208;49.826;6.004;2022-09-09T16:58:58;3.30;;;0.80;;
14247;SDS011;7208;49.826;6.004;2022-09-09T17:01:25;1.60;;;0.73;;
14247;SDS011;7208;49.826;6.004;2022-09-09T17:03:54;1.87;;;0.83;;
14247;SDS011;7208;49.826;6.004;2022-09-09T17:06:21;1.23;;;0.60;;
14247;SDS011;7208;49.826;6.004;2022-09-09T17:08:47;2.57;;;1.13;;
14247;SDS011;7208;49.826;6.004;2022-09-09T17:13:42;1.77;;;0.70;;
14247;SDS011;7208;49.826;6.004;2022-09-09T17:16:09;2.33;;;0.70;;
14247;SDS011;7208;49.826;6.004;2022-09-09T17:18:35;1.70;;;0.73;;
14247;SDS011;7208;49.826;6.004;2022-09-09T17:21:02;4.00;;;1.00;;
14247;SDS011;7208;49.826;6.004;2022-09-09T17:23:28;2.07;;;0.90;;
14247;SDS011;7208;49.826;6.004;2022-09-09T17:25:55;3.10;;;0.70;;